KVCT/VCT METAR and TAF weather

Enter ICAO airport designator
Station Type Date Time Source
KVCT METAR 2018/12/11 21:51 UTC NOAA

KVCT 112151Z 13005KT 10SM CLR 16/09 A3027 RMK AO2 SLP249 T01610089


Station Type Date Time Source
KVCT Decoded METAR 2018/12/11 21:51 UTC NOAA

VICTORIA REGIONAL AIRPORT, TX, United States (KVCT) 28-52N 96-56W 31M
Dec 11, 2018 - 04:51 PM EST / 2018.12.11 2151 UTC
Wind: from the SE (130 degrees) at 6 MPH (5 KT):0
Visibility: 10 mile(s):0
Sky conditions: clear
Temperature: 61.0 F (16.1 C)
Dew Point: 48.0 F (8.9 C)
Relative Humidity: 62%
Pressure (altimeter): 30.27 in. Hg (1025 hPa)
ob: KVCT 112151Z 13005KT 10SM CLR 16/09 A3027 RMK AO2 SLP249 T01610089
cycle: 22

Station Type Date Time Source
KVCT TAF 2018/12/11 18:34 UTC NOAA

TAF KVCT 111732Z 1118/1218 16011KT P6SM FEW030 SCT250
FM120900 16005KT P6SM BKN035
TEMPO 1209/1212 BKN030
FM121200 14007KT P6SM BKN050 BKN080


Example: see airport list